sensor_id;sensor_type;location;lat;lon;timestamp;temperature;humidity
79140;HTU21D;68546;59.142;37.948;2023-06-22T00:00:53;17.13;45.06
79140;HTU21D;68546;59.142;37.948;2023-06-22T00:03:21;17.13;45.14
79140;HTU21D;68546;59.142;37.948;2023-06-22T00:05:48;17.11;45.25
79140;HTU21D;68546;59.142;37.948;2023-06-22T00:08:15;17.13;45.36
79140;HTU21D;68546;59.142;37.948;2023-06-22T00:10:42;17.11;45.46
79140;HTU21D;68546;59.142;37.948;2023-06-22T00:13:09;17.11;45.65
79140;HTU21D;68546;59.142;37.948;2023-06-22T00:15:37;17.10;45.82
79140;HTU21D;68546;59.142;37.948;2023-06-22T00:18:08;17.11;46.06
79140;HTU21D;68546;59.142;37.948;2023-06-22T00:20:35;17.10;46.17
79140;HTU21D;68546;59.142;37.948;2023-06-22T00:23:06;17.08;46.41
79140;HTU21D;68546;59.142;37.948;2023-06-22T00:25:37;17.09;46.51
79140;HTU21D;68546;59.142;37.948;2023-06-22T00:28:05;17.08;46.61
79140;HTU21D;68546;59.142;37.948;2023-06-22T00:30:34;17.08;46.73
79140;HTU21D;68546;59.142;37.948;2023-06-22T00:33:00;17.09;46.82
79140;HTU21D;68546;59.142;37.948;2023-06-22T00:35:27;17.07;46.93
79140;HTU21D;68546;59.142;37.948;2023-06-22T00:37:57;17.08;46.96
79140;HTU21D;68546;59.142;37.948;2023-06-22T00:40:31;17.07;47.06
79140;HTU21D;68546;59.142;37.948;2023-06-22T00:42:58;17.07;47.16
79140;HTU21D;68546;59.142;37.948;2023-06-22T00:45:25;17.09;47.23
79140;HTU21D;68546;59.142;37.948;2023-06-22T00:47:54;17.09;47.33
79140;HTU21D;68546;59.142;37.948;2023-06-22T00:50:27;17.08;47.38
79140;HTU21D;68546;59.142;37.948;2023-06-22T00:52:56;17.08;47.50
79140;HTU21D;68546;59.142;37.948;2023-06-22T00:55:24;17.09;47.57
79140;HTU21D;68546;59.142;37.948;2023-06-22T00:57:52;17.08;47.63
79140;HTU21D;68546;59.142;37.948;2023-06-22T01:00:25;17.09;47.75
79140;HTU21D;68546;59.142;37.948;2023-06-22T01:02:53;17.10;47.76
79140;HTU21D;68546;59.142;37.948;2023-06-22T01:05:21;17.10;47.91
79140;HTU21D;68546;59.142;37.948;2023-06-22T01:10:51;17.14;47.92
79140;HTU21D;68546;59.142;37.948;2023-06-22T01:13:50;17.13;47.89
79140;HTU21D;68546;59.142;37.948;2023-06-22T01:16:24;17.11;48.12
79140;HTU21D;68546;59.142;37.948;2023-06-22T01:18:55;17.11;48.21
79140;HTU21D;68546;59.142;37.948;2023-06-22T01:21:25;17.11;48.32
79140;HTU21D;68546;59.142;37.948;2023-06-22T01:24:04;17.11;48.41
79140;HTU21D;68546;59.142;37.948;2023-06-22T01:27:00;17.11;48.37
79140;HTU21D;68546;59.142;37.948;2023-06-22T01:29:33;17.13;48.42
79140;HTU21D;68546;59.142;37.948;2023-06-22T01:32:02;17.13;48.47
79140;HTU21D;68546;59.142;37.948;2023-06-22T01:34:30;17.13;48.53
79140;HTU21D;68546;59.142;37.948;2023-06-22T01:36:58;17.11;48.59
79140;HTU21D;68546;59.142;37.948;2023-06-22T01:39:29;17.09;48.63
79140;HTU21D;68546;59.142;37.948;2023-06-22T01:41:57;17.07;48.59
79140;HTU21D;68546;59.142;37.948;2023-06-22T01:44:24;17.05;48.50
79140;HTU21D;68546;59.142;37.948;2023-06-22T01:46:52;17.02;48.48
79140;HTU21D;68546;59.142;37.948;2023-06-22T01:49:18;16.98;48.50
79140;HTU21D;68546;59.142;37.948;2023-06-22T01:51:45;16.92;48.57
79140;HTU21D;68546;59.142;37.948;2023-06-22T01:54:11;16.89;48.54
79140;HTU21D;68546;59.142;37.948;2023-06-22T01:56:39;16.85;48.53
79140;HTU21D;68546;59.142;37.948;2023-06-22T01:59:46;16.79;48.43
79140;HTU21D;68546;59.142;37.948;2023-06-22T02:02:11;16.76;48.56
79140;HTU21D;68546;59.142;37.948;2023-06-22T02:04:40;16.72;48.68
79140;HTU21D;68546;59.142;37.948;2023-06-22T02:07:14;16.67;48.75
79140;HTU21D;68546;59.142;37.948;2023-06-22T02:09:44;16.66;48.82
79140;HTU21D;68546;59.142;37.948;2023-06-22T02:12:13;16.65;48.92
79140;HTU21D;68546;59.142;37.948;2023-06-22T02:14:40;16.63;49.02
79140;HTU21D;68546;59.142;37.948;2023-06-22T02:17:08;16.62;49.18
79140;HTU21D;68546;59.142;37.948;2023-06-22T02:19:41;16.62;49.29
79140;HTU21D;68546;59.142;37.948;2023-06-22T02:22:07;16.62;49.37
79140;HTU21D;68546;59.142;37.948;2023-06-22T02:24:34;16.62;49.48
79140;HTU21D;68546;59.142;37.948;2023-06-22T02:27:01;16.65;49.54
79140;HTU21D;68546;59.142;37.948;2023-06-22T02:29:28;16.66;49.66
79140;HTU21D;68546;59.142;37.948;2023-06-22T02:31:55;16.66;49.70
79140;HTU21D;68546;59.142;37.948;2023-06-22T02:34:22;16.69;49.71
79140;HTU21D;68546;59.142;37.948;2023-06-22T02:36:50;16.71;49.79
79140;HTU21D;68546;59.142;37.948;2023-06-22T02:39:21;16.72;49.83
79140;HTU21D;68546;59.142;37.948;2023-06-22T02:41:50;16.72;49.83
79140;HTU21D;68546;59.142;37.948;2023-06-22T02:44:17;16.72;49.85
79140;HTU21D;68546;59.142;37.948;2023-06-22T02:46:44;16.72;49.88
79140;HTU21D;68546;59.142;37.948;2023-06-22T02:49:11;16.70;49.86
79140;HTU21D;68546;59.142;37.948;2023-06-22T02:51:44;16.70;49.97
79140;HTU21D;68546;59.142;37.948;2023-06-22T02:54:11;16.66;50.00
79140;HTU21D;68546;59.142;37.948;2023-06-22T02:56:38;16.65;50.06
79140;HTU21D;68546;59.142;37.948;2023-06-22T02:59:06;16.65;50.09
79140;HTU21D;68546;59.142;37.948;2023-06-22T03:01:38;16.62;50.22
79140;HTU21D;68546;59.142;37.948;2023-06-22T03:04:16;16.58;50.28
79140;HTU21D;68546;59.142;37.948;2023-06-22T03:06:42;16.56;50.35
79140;HTU21D;68546;59.142;37.948;2023-06-22T03:09:09;16.54;50.66
79140;HTU21D;68546;59.142;37.948;2023-06-22T03:11:36;16.52;50.95
79140;HTU21D;68546;59.142;37.948;2023-06-22T03:14:02;16.50;51.11
79140;HTU21D;68546;59.142;37.948;2023-06-22T03:16:29;16.49;51.43
79140;HTU21D;68546;59.142;37.948;2023-06-22T03:18:56;16.43;51.72
79140;HTU21D;68546;59.142;37.948;2023-06-22T03:21:23;16.32;52.04
79140;HTU21D;68546;59.142;37.948;2023-06-22T03:23:51;16.22;52.30
79140;HTU21D;68546;59.142;37.948;2023-06-22T03:26:18;16.12;52.81
79140;HTU21D;68546;59.142;37.948;2023-06-22T03:28:45;16.03;53.45
79140;HTU21D;68546;59.142;37.948;2023-06-22T03:31:12;15.98;53.84
79140;HTU21D;68546;59.142;37.948;2023-06-22T03:33:40;15.90;54.39
79140;HTU21D;68546;59.142;37.948;2023-06-22T03:36:06;15.83;55.04
79140;HTU21D;68546;59.142;37.948;2023-06-22T03:38:33;15.77;55.34
79140;HTU21D;68546;59.142;37.948;2023-06-22T03:41:00;15.71;56.17
79140;HTU21D;68546;59.142;37.948;2023-06-22T03:43:26;15.66;56.76
79140;HTU21D;68546;59.142;37.948;2023-06-22T03:45:53;15.61;57.16
79140;HTU21D;68546;59.142;37.948;2023-06-22T03:48:19;15.59;57.64
79140;HTU21D;68546;59.142;37.948;2023-06-22T03:50:46;15.57;58.41
79140;HTU21D;68546;59.142;37.948;2023-06-22T03:53:12;15.56;58.90
79140;HTU21D;68546;59.142;37.948;2023-06-22T03:55:47;15.58;59.52
79140;HTU21D;68546;59.142;37.948;2023-06-22T03:58:14;15.57;60.04
79140;HTU21D;68546;59.142;37.948;2023-06-22T04:00:40;15.60;60.03
79140;HTU21D;68546;59.142;37.948;2023-06-22T04:03:06;15.61;60.35
79140;HTU21D;68546;59.142;37.948;2023-06-22T04:05:33;15.60;60.64
79140;HTU21D;68546;59.142;37.948;2023-06-22T04:07:59;15.60;61.06
79140;HTU21D;68546;59.142;37.948;2023-06-22T04:10:26;15.61;61.53
79140;HTU21D;68546;59.142;37.948;2023-06-22T04:12:52;15.63;62.14
79140;HTU21D;68546;59.142;37.948;2023-06-22T04:15:19;15.67;62.60
79140;HTU21D;68546;59.142;37.948;2023-06-22T04:17:46;15.70;62.98
79140;HTU21D;68546;59.142;37.948;2023-06-22T04:20:13;15.72;63.16
79140;HTU21D;68546;59.142;37.948;2023-06-22T04:22:39;15.77;63.41
79140;HTU21D;68546;59.142;37.948;2023-06-22T04:25:06;15.81;63.58
79140;HTU21D;68546;59.142;37.948;2023-06-22T04:27:34;15.85;63.66
79140;HTU21D;68546;59.142;37.948;2023-06-22T04:30:07;15.87;63.77
79140;HTU21D;68546;59.142;37.948;2023-06-22T04:32:34;15.89;63.80
79140;HTU21D;68546;59.142;37.948;2023-06-22T04:35:03;15.90;63.97
79140;HTU21D;68546;59.142;37.948;2023-06-22T04:37:31;15.92;63.95
79140;HTU21D;68546;59.142;37.948;2023-06-22T04:39:58;15.96;64.12
79140;HTU21D;68546;59.142;37.948;2023-06-22T04:42:27;15.97;64.47
79140;HTU21D;68546;59.142;37.948;2023-06-22T04:44:54;15.99;64.76
79140;HTU21D;68546;59.142;37.948;2023-06-22T04:47:20;16.02;65.08
79140;HTU21D;68546;59.142;37.948;2023-06-22T04:49:47;16.05;65.34
79140;HTU21D;68546;59.142;37.948;2023-06-22T04:52:14;16.11;65.37
79140;HTU21D;68546;59.142;37.948;2023-06-22T04:54:43;16.14;65.59
79140;HTU21D;68546;59.142;37.948;2023-06-22T04:57:13;16.18;66.03
79140;HTU21D;68546;59.142;37.948;2023-06-22T04:59:40;16.25;66.01
79140;HTU21D;68546;59.142;37.948;2023-06-22T05:02:07;16.29;65.99
79140;HTU21D;68546;59.142;37.948;2023-06-22T05:04:34;16.33;65.98
79140;HTU21D;68546;59.142;37.948;2023-06-22T05:07:10;16.37;65.82
79140;HTU21D;68546;59.142;37.948;2023-06-22T05:09:36;16.40;65.71
79140;HTU21D;68546;59.142;37.948;2023-06-22T05:12:03;16.43;65.71
79140;HTU21D;68546;59.142;37.948;2023-06-22T05:14:30;16.44;65.69
79140;HTU21D;68546;59.142;37.948;2023-06-22T05:16:57;16.45;65.65
79140;HTU21D;68546;59.142;37.948;2023-06-22T05:19:29;16.45;65.70
79140;HTU21D;68546;59.142;37.948;2023-06-22T05:21:59;16.46;65.98
79140;HTU21D;68546;59.142;37.948;2023-06-22T05:24:25;16.48;66.13
79140;HTU21D;68546;59.142;37.948;2023-06-22T05:26:51;16.49;66.17
79140;HTU21D;68546;59.142;37.948;2023-06-22T05:29:18;16.50;66.42
79140;HTU21D;68546;59.142;37.948;2023-06-22T05:31:44;16.52;66.56
79140;HTU21D;68546;59.142;37.948;2023-06-22T05:34:10;16.56;66.87
79140;HTU21D;68546;59.142;37.948;2023-06-22T05:36:37;16.58;66.91
79140;HTU21D;68546;59.142;37.948;2023-06-22T05:39:11;16.61;67.04
79140;HTU21D;68546;59.142;37.948;2023-06-22T05:41:39;16.63;66.94
79140;HTU21D;68546;59.142;37.948;2023-06-22T05:44:05;16.65;66.86
79140;HTU21D;68546;59.142;37.948;2023-06-22T05:46:32;16.65;66.81
79140;HTU21D;68546;59.142;37.948;2023-06-22T05:48:58;16.67;66.88
79140;HTU21D;68546;59.142;37.948;2023-06-22T05:51:25;16.70;66.92
79140;HTU21D;68546;59.142;37.948;2023-06-22T05:53:51;16.72;66.96
79140;HTU21D;68546;59.142;37.948;2023-06-22T05:56:17;16.71;66.92
79140;HTU21D;68546;59.142;37.948;2023-06-22T05:58:44;16.72;66.92
79140;HTU21D;68546;59.142;37.948;2023-06-22T06:01:10;16.71;67.07
79140;HTU21D;68546;59.142;37.948;2023-06-22T06:03:36;16.70;67.16
79140;HTU21D;68546;59.142;37.948;2023-06-22T06:06:07;16.69;67.08
79140;HTU21D;68546;59.142;37.948;2023-06-22T06:08:34;16.69;67.11
79140;HTU21D;68546;59.142;37.948;2023-06-22T06:11:00;16.67;67.30
79140;HTU21D;68546;59.142;37.948;2023-06-22T06:13:26;16.69;67.59
79140;HTU21D;68546;59.142;37.948;2023-06-22T06:15:53;16.70;67.62
79140;HTU21D;68546;59.142;37.948;2023-06-22T06:18:21;16.71;67.79
79140;HTU21D;68546;59.142;37.948;2023-06-22T06:20:47;16.72;67.82
79140;HTU21D;68546;59.142;37.948;2023-06-22T06:23:13;16.73;67.71
79140;HTU21D;68546;59.142;37.948;2023-06-22T06:25:40;16.74;67.75
79140;HTU21D;68546;59.142;37.948;2023-06-22T06:28:06;16.76;68.18
79140;HTU21D;68546;59.142;37.948;2023-06-22T06:30:32;16.79;68.26
79140;HTU21D;68546;59.142;37.948;2023-06-22T06:33:00;16.84;68.52
79140;HTU21D;68546;59.142;37.948;2023-06-22T06:35:26;16.89;68.44
79140;HTU21D;68546;59.142;37.948;2023-06-22T06:37:53;16.96;68.55
79140;HTU21D;68546;59.142;37.948;2023-06-22T06:40:19;17.00;68.45
79140;HTU21D;68546;59.142;37.948;2023-06-22T06:42:47;17.04;68.34
79140;HTU21D;68546;59.142;37.948;2023-06-22T06:45:18;17.05;68.27
79140;HTU21D;68546;59.142;37.948;2023-06-22T06:47:45;17.07;68.39
79140;HTU21D;68546;59.142;37.948;2023-06-22T06:50:12;17.09;68.36
79140;HTU21D;68546;59.142;37.948;2023-06-22T06:52:39;17.10;68.23
79140;HTU21D;68546;59.142;37.948;2023-06-22T06:55:06;17.13;68.33
79140;HTU21D;68546;59.142;37.948;2023-06-22T06:57:34;17.14;68.33
79140;HTU21D;68546;59.142;37.948;2023-06-22T07:00:01;17.17;68.44
79140;HTU21D;68546;59.142;37.948;2023-06-22T07:02:28;17.19;68.42
79140;HTU21D;68546;59.142;37.948;2023-06-22T07:04:55;17.23;68.46
79140;HTU21D;68546;59.142;37.948;2023-06-22T07:07:21;17.28;68.47
79140;HTU21D;68546;59.142;37.948;2023-06-22T07:09:48;17.31;68.66
79140;HTU21D;68546;59.142;37.948;2023-06-22T07:12:15;17.34;68.73
79140;HTU21D;68546;59.142;37.948;2023-06-22T07:14:41;17.43;69.00
79140;HTU21D;68546;59.142;37.948;2023-06-22T07:17:08;17.49;68.92
79140;HTU21D;68546;59.142;37.948;2023-06-22T07:19:35;17.54;68.93
79140;HTU21D;68546;59.142;37.948;2023-06-22T07:22:02;17.61;68.84
79140;HTU21D;68546;59.142;37.948;2023-06-22T07:24:29;17.69;69.05
79140;HTU21D;68546;59.142;37.948;2023-06-22T07:26:57;17.79;69.22
79140;HTU21D;68546;59.142;37.948;2023-06-22T07:29:27;17.89;68.83
79140;HTU21D;68546;59.142;37.948;2023-06-22T07:31:53;17.97;68.51
79140;HTU21D;68546;59.142;37.948;2023-06-22T07:34:22;18.07;68.29
79140;HTU21D;68546;59.142;37.948;2023-06-22T07:36:49;18.14;68.06
79140;HTU21D;68546;59.142;37.948;2023-06-22T07:39:15;18.21;67.62
79140;HTU21D;68546;59.142;37.948;2023-06-22T07:41:41;18.27;67.27
79140;HTU21D;68546;59.142;37.948;2023-06-22T07:44:08;18.30;66.96
79140;HTU21D;68546;59.142;37.948;2023-06-22T07:46:34;18.34;66.85
79140;HTU21D;68546;59.142;37.948;2023-06-22T07:49:01;18.34;66.49
79140;HTU21D;68546;59.142;37.948;2023-06-22T07:51:28;18.33;66.07
79140;HTU21D;68546;59.142;37.948;2023-06-22T07:53:58;18.33;65.94
79140;HTU21D;68546;59.142;37.948;2023-06-22T07:56:25;18.30;65.75
79140;HTU21D;68546;59.142;37.948;2023-06-22T07:58:52;18.27;65.45
79140;HTU21D;68546;59.142;37.948;2023-06-22T08:01:19;18.25;65.40
79140;HTU21D;68546;59.142;37.948;2023-06-22T08:03:48;18.24;65.25
79140;HTU21D;68546;59.142;37.948;2023-06-22T08:06:15;18.22;65.01
79140;HTU21D;68546;59.142;37.948;2023-06-22T08:08:43;18.20;64.83
79140;HTU21D;68546;59.142;37.948;2023-06-22T08:11:13;18.17;64.65
79140;HTU21D;68546;59.142;37.948;2023-06-22T08:13:40;18.14;64.56
79140;HTU21D;68546;59.142;37.948;2023-06-22T08:16:06;18.12;64.63
79140;HTU21D;68546;59.142;37.948;2023-06-22T08:18:33;18.11;64.67
79140;HTU21D;68546;59.142;37.948;2023-06-22T08:21:00;18.10;64.53
79140;HTU21D;68546;59.142;37.948;2023-06-22T08:23:26;18.11;64.43
79140;HTU21D;68546;59.142;37.948;2023-06-22T08:25:52;18.12;64.31
79140;HTU21D;68546;59.142;37.948;2023-06-22T08:28:19;18.14;64.27
79140;HTU21D;68546;59.142;37.948;2023-06-22T08:30:45;18.19;64.14
79140;HTU21D;68546;59.142;37.948;2023-06-22T08:33:12;18.24;63.97
79140;HTU21D;68546;59.142;37.948;2023-06-22T08:35:38;18.30;63.89
79140;HTU21D;68546;59.142;37.948;2023-06-22T08:38:05;18.42;63.88
79140;HTU21D;68546;59.142;37.948;2023-06-22T08:40:31;18.54;63.43
79140;HTU21D;68546;59.142;37.948;2023-06-22T08:42:58;18.61;63.01
79140;HTU21D;68546;59.142;37.948;2023-06-22T08:45:25;18.66;62.50
79140;HTU21D;68546;59.142;37.948;2023-06-22T08:47:52;18.69;62.15
79140;HTU21D;68546;59.142;37.948;2023-06-22T08:50:19;18.71;61.70
79140;HTU21D;68546;59.142;37.948;2023-06-22T08:52:46;18.73;61.39
79140;HTU21D;68546;59.142;37.948;2023-06-22T08:55:13;18.74;60.94
79140;HTU21D;68546;59.142;37.948;2023-06-22T08:57:40;18.71;60.59
79140;HTU21D;68546;59.142;37.948;2023-06-22T09:00:08;18.67;60.30
79140;HTU21D;68546;59.142;37.948;2023-06-22T09:02:46;18.64;60.05
79140;HTU21D;68546;59.142;37.948;2023-06-22T09:05:13;18.62;60.11
79140;HTU21D;68546;59.142;37.948;2023-06-22T09:07:40;18.63;60.16
79140;HTU21D;68546;59.142;37.948;2023-06-22T09:10:07;18.63;60.27
79140;HTU21D;68546;59.142;37.948;2023-06-22T09:12:33;18.65;60.11
79140;HTU21D;68546;59.142;37.948;2023-06-22T09:15:00;18.66;60.03
79140;HTU21D;68546;59.142;37.948;2023-06-22T09:17:27;18.69;59.99
79140;HTU21D;68546;59.142;37.948;2023-06-22T09:19:54;18.72;59.86
79140;HTU21D;68546;59.142;37.948;2023-06-22T09:22:20;18.81;60.08
79140;HTU21D;68546;59.142;37.948;2023-06-22T09:24:47;18.93;59.95
79140;HTU21D;68546;59.142;37.948;2023-06-22T09:27:13;19.03;59.85
79140;HTU21D;68546;59.142;37.948;2023-06-22T09:29:39;19.14;59.70
79140;HTU21D;68546;59.142;37.948;2023-06-22T09:32:07;19.26;59.57
79140;HTU21D;68546;59.142;37.948;2023-06-22T09:34:33;19.39;59.22
79140;HTU21D;68546;59.142;37.948;2023-06-22T09:36:59;19.50;58.71
79140;HTU21D;68546;59.142;37.948;2023-06-22T09:39:26;19.57;58.35
79140;HTU21D;68546;59.142;37.948;2023-06-22T09:41:53;19.65;57.95
79140;HTU21D;68546;59.142;37.948;2023-06-22T09:44:19;19.69;57.52
79140;HTU21D;68546;59.142;37.948;2023-06-22T09:46:45;19.73;57.32
79140;HTU21D;68546;59.142;37.948;2023-06-22T09:49:12;19.76;57.06
79140;HTU21D;68546;59.142;37.948;2023-06-22T09:51:38;19.75;56.73
79140;HTU21D;68546;59.142;37.948;2023-06-22T09:54:04;19.73;56.45
79140;HTU21D;68546;59.142;37.948;2023-06-22T09:56:31;19.72;56.29
79140;HTU21D;68546;59.142;37.948;2023-06-22T09:58:57;19.70;56.19
79140;HTU21D;68546;59.142;37.948;2023-06-22T10:01:23;19.71;56.15
79140;HTU21D;68546;59.142;37.948;2023-06-22T10:03:52;19.73;56.07
79140;HTU21D;68546;59.142;37.948;2023-06-22T10:06:23;19.74;55.99
79140;HTU21D;68546;59.142;37.948;2023-06-22T10:08:51;19.79;55.75
79140;HTU21D;68546;59.142;37.948;2023-06-22T10:11:18;19.83;55.63
79140;HTU21D;68546;59.142;37.948;2023-06-22T10:13:44;19.87;55.50
79140;HTU21D;68546;59.142;37.948;2023-06-22T10:16:10;19.91;55.21
79140;HTU21D;68546;59.142;37.948;2023-06-22T10:18:37;19.95;55.07
79140;HTU21D;68546;59.142;37.948;2023-06-22T10:21:03;19.99;54.96
79140;HTU21D;68546;59.142;37.948;2023-06-22T10:23:29;20.02;54.75
79140;HTU21D;68546;59.142;37.948;2023-06-22T10:25:56;20.04;54.42
79140;HTU21D;68546;59.142;37.948;2023-06-22T10:28:24;20.04;54.12
79140;HTU21D;68546;59.142;37.948;2023-06-22T10:30:50;20.00;53.77
79140;HTU21D;68546;59.142;37.948;2023-06-22T10:33:16;19.98;53.56
79140;HTU21D;68546;59.142;37.948;2023-06-22T10:35:43;19.98;53.67
79140;HTU21D;68546;59.142;37.948;2023-06-22T10:38:09;19.97;53.72
79140;HTU21D;68546;59.142;37.948;2023-06-22T10:40:35;19.99;53.62
79140;HTU21D;68546;59.142;37.948;2023-06-22T10:43:02;20.00;53.61
79140;HTU21D;68546;59.142;37.948;2023-06-22T10:45:28;20.01;53.57
79140;HTU21D;68546;59.142;37.948;2023-06-22T10:47:55;20.04;53.37
79140;HTU21D;68546;59.142;37.948;2023-06-22T10:50:21;20.06;53.39
79140;HTU21D;68546;59.142;37.948;2023-06-22T10:52:49;20.11;53.21
79140;HTU21D;68546;59.142;37.948;2023-06-22T10:55:16;20.16;53.09
79140;HTU21D;68546;59.142;37.948;2023-06-22T10:57:42;20.21;53.04
79140;HTU21D;68546;59.142;37.948;2023-06-22T11:00:11;20.25;52.78
79140;HTU21D;68546;59.142;37.948;2023-06-22T11:02:37;20.28;52.59
79140;HTU21D;68546;59.142;37.948;2023-06-22T11:05:04;20.26;52.47
79140;HTU21D;68546;59.142;37.948;2023-06-22T11:07:31;20.29;52.49
79140;HTU21D;68546;59.142;37.948;2023-06-22T11:09:57;20.31;52.37
79140;HTU21D;68546;59.142;37.948;2023-06-22T11:12:23;20.33;52.23
79140;HTU21D;68546;59.142;37.948;2023-06-22T11:14:50;20.34;52.24
79140;HTU21D;68546;59.142;37.948;2023-06-22T11:17:18;20.32;52.00
79140;HTU21D;68546;59.142;37.948;2023-06-22T11:19:44;20.31;51.93
79140;HTU21D;68546;59.142;37.948;2023-06-22T11:22:11;20.29;51.91
79140;HTU21D;68546;59.142;37.948;2023-06-22T11:24:37;20.28;51.89
79140;HTU21D;68546;59.142;37.948;2023-06-22T11:27:03;20.21;51.88
79140;HTU21D;68546;59.142;37.948;2023-06-22T11:29:30;20.19;51.95
79140;HTU21D;68546;59.142;37.948;2023-06-22T11:31:57;20.15;51.83
79140;HTU21D;68546;59.142;37.948;2023-06-22T11:34:23;20.07;51.73
79140;HTU21D;68546;59.142;37.948;2023-06-22T11:36:49;20.00;51.81
79140;HTU21D;68546;59.142;37.948;2023-06-22T11:39:16;19.92;51.83
79140;HTU21D;68546;59.142;37.948;2023-06-22T11:41:44;19.86;51.91
79140;HTU21D;68546;59.142;37.948;2023-06-22T11:44:10;19.80;52.05
79140;HTU21D;68546;59.142;37.948;2023-06-22T11:46:36;19.72;52.20
79140;HTU21D;68546;59.142;37.948;2023-06-22T11:49:03;19.67;52.29
79140;HTU21D;68546;59.142;37.948;2023-06-22T11:51:29;19.61;52.39
79140;HTU21D;68546;59.142;37.948;2023-06-22T11:53:57;19.57;52.59
79140;HTU21D;68546;59.142;37.948;2023-06-22T11:56:24;19.55;52.80
79140;HTU21D;68546;59.142;37.948;2023-06-22T11:58:51;19.56;52.99
79140;HTU21D;68546;59.142;37.948;2023-06-22T12:01:17;19.58;53.02
79140;HTU21D;68546;59.142;37.948;2023-06-22T12:03:44;19.60;53.10
79140;HTU21D;68546;59.142;37.948;2023-06-22T12:06:11;19.62;53.20
79140;HTU21D;68546;59.142;37.948;2023-06-22T12:08:37;19.67;53.39
79140;HTU21D;68546;59.142;37.948;2023-06-22T12:11:04;19.71;53.56
79140;HTU21D;68546;59.142;37.948;2023-06-22T12:13:31;19.79;53.44
79140;HTU21D;68546;59.142;37.948;2023-06-22T12:15:57;19.81;53.49
79140;HTU21D;68546;59.142;37.948;2023-06-22T12:18:24;19.84;53.35
79140;HTU21D;68546;59.142;37.948;2023-06-22T12:20:50;19.86;53.20
79140;HTU21D;68546;59.142;37.948;2023-06-22T12:23:17;19.86;53.27
79140;HTU21D;68546;59.142;37.948;2023-06-22T12:25:45;19.88;53.23
79140;HTU21D;68546;59.142;37.948;2023-06-22T12:28:11;19.91;53.33
79140;HTU21D;68546;59.142;37.948;2023-06-22T12:30:38;19.96;53.41
79140;HTU21D;68546;59.142;37.948;2023-06-22T12:33:04;20.00;53.41
79140;HTU21D;68546;59.142;37.948;2023-06-22T12:35:30;20.06;53.36
79140;HTU21D;68546;59.142;37.948;2023-06-22T12:37:56;20.11;53.36
79140;HTU21D;68546;59.142;37.948;2023-06-22T12:40:23;20.21;53.45
79140;HTU21D;68546;59.142;37.948;2023-06-22T12:42:49;20.31;53.32
79140;HTU21D;68546;59.142;37.948;2023-06-22T12:45:16;20.41;53.19
79140;HTU21D;68546;59.142;37.948;2023-06-22T12:47:43;20.48;52.89
79140;HTU21D;68546;59.142;37.948;2023-06-22T12:50:10;20.50;52.59
79140;HTU21D;68546;59.142;37.948;2023-06-22T12:52:37;20.54;52.38
79140;HTU21D;68546;59.142;37.948;2023-06-22T12:55:07;20.55;52.30
79140;HTU21D;68546;59.142;37.948;2023-06-22T12:57:33;20.55;52.21
79140;HTU21D;68546;59.142;37.948;2023-06-22T13:00:00;20.53;52.12
79140;HTU21D;68546;59.142;37.948;2023-06-22T13:02:26;20.48;51.85
79140;HTU21D;68546;59.142;37.948;2023-06-22T13:04:54;20.40;51.73
79140;HTU21D;68546;59.142;37.948;2023-06-22T13:07:20;20.32;51.85
79140;HTU21D;68546;59.142;37.948;2023-06-22T13:09:47;20.28;51.88
79140;HTU21D;68546;59.142;37.948;2023-06-22T13:12:17;20.21;52.03
79140;HTU21D;68546;59.142;37.948;2023-06-22T13:14:46;20.17;52.14
79140;HTU21D;68546;59.142;37.948;2023-06-22T13:17:13;20.15;52.24
79140;HTU21D;68546;59.142;37.948;2023-06-22T13:19:40;20.16;52.34
79140;HTU21D;68546;59.142;37.948;2023-06-22T13:22:28;20.17;52.43
79140;HTU21D;68546;59.142;37.948;2023-06-22T13:24:55;20.18;52.36
79140;HTU21D;68546;59.142;37.948;2023-06-22T13:27:22;20.18;52.36
79140;HTU21D;68546;59.142;37.948;2023-06-22T13:29:49;20.21;52.31
79140;HTU21D;68546;59.142;37.948;2023-06-22T13:32:15;20.22;52.32
79140;HTU21D;68546;59.142;37.948;2023-06-22T13:34:43;20.22;52.31
79140;HTU21D;68546;59.142;37.948;2023-06-22T13:37:09;20.27;52.28
79140;HTU21D;68546;59.142;37.948;2023-06-22T13:39:35;20.26;52.36
79140;HTU21D;68546;59.142;37.948;2023-06-22T13:42:02;20.31;52.49
79140;HTU21D;68546;59.142;37.948;2023-06-22T13:44:29;20.41;52.53
79140;HTU21D;68546;59.142;37.948;2023-06-22T13:46:55;20.51;52.58
79140;HTU21D;68546;59.142;37.948;2023-06-22T13:49:22;20.66;52.62
79140;HTU21D;68546;59.142;37.948;2023-06-22T13:51:48;20.84;52.41
79140;HTU21D;68546;59.142;37.948;2023-06-22T13:54:15;21.01;52.18
79140;HTU21D;68546;59.142;37.948;2023-06-22T13:56:42;21.17;51.83
79140;HTU21D;68546;59.142;37.948;2023-06-22T13:59:08;21.34;51.54
79140;HTU21D;68546;59.142;37.948;2023-06-22T14:01:37;21.48;51.08
79140;HTU21D;68546;59.142;37.948;2023-06-22T14:04:06;21.58;50.57
79140;HTU21D;68546;59.142;37.948;2023-06-22T14:06:32;21.63;50.22
79140;HTU21D;68546;59.142;37.948;2023-06-22T14:08:58;21.69;50.04
79140;HTU21D;68546;59.142;37.948;2023-06-22T14:11:27;21.75;49.92
79140;HTU21D;68546;59.142;37.948;2023-06-22T14:13:54;21.77;49.56
79140;HTU21D;68546;59.142;37.948;2023-06-22T14:16:20;21.79;49.43
79140;HTU21D;68546;59.142;37.948;2023-06-22T14:18:46;21.82;49.29
79140;HTU21D;68546;59.142;37.948;2023-06-22T14:21:13;21.88;49.30
79140;HTU21D;68546;59.142;37.948;2023-06-22T14:23:39;21.96;49.27
79140;HTU21D;68546;59.142;37.948;2023-06-22T14:26:06;22.03;49.06
79140;HTU21D;68546;59.142;37.948;2023-06-22T14:28:33;22.08;48.79
79140;HTU21D;68546;59.142;37.948;2023-06-22T14:30:59;22.10;48.54
79140;HTU21D;68546;59.142;37.948;2023-06-22T14:33:26;22.11;48.37
79140;HTU21D;68546;59.142;37.948;2023-06-22T14:35:53;22.12;48.30
79140;HTU21D;68546;59.142;37.948;2023-06-22T14:38:19;22.13;48.23
79140;HTU21D;68546;59.142;37.948;2023-06-22T14:40:47;22.11;48.02
79140;HTU21D;68546;59.142;37.948;2023-06-22T14:43:13;22.12;47.96
79140;HTU21D;68546;59.142;37.948;2023-06-22T14:45:40;22.11;48.02
79140;HTU21D;68546;59.142;37.948;2023-06-22T14:48:07;22.13;48.03
79140;HTU21D;68546;59.142;37.948;2023-06-22T14:50:33;22.18;48.08
79140;HTU21D;68546;59.142;37.948;2023-06-22T14:52:59;22.25;48.33
79140;HTU21D;68546;59.142;37.948;2023-06-22T14:55:26;22.39;48.18
79140;HTU21D;68546;59.142;37.948;2023-06-22T14:57:52;22.51;47.94
79140;HTU21D;68546;59.142;37.948;2023-06-22T15:00:19;22.58;47.43
79140;HTU21D;68546;59.142;37.948;2023-06-22T15:02:45;22.63;47.12
79140;HTU21D;68546;59.142;37.948;2023-06-22T15:05:11;22.63;46.84
79140;HTU21D;68546;59.142;37.948;2023-06-22T15:07:38;22.63;46.82